Terminal Aerodrome Forecast
Issued by NWS Missoula, MT

Home | Current Version | Previous Version | Text Only | Print | Product List | Glossary On
Versions: 1 2 3 4 5 6 7 8 9 10 11 12 13 14 15 16 17 18 19 20
000
FTUS45 KMSO 201700
TAFGPI
TAF
KGPI 201740Z 2018/2118 VRB03KT P6SM VCSH BKN060
     FM202200 16007KT P6SM VCTS BKN050CB
     FM210000 VRB04KT P6SM -SHRA OVC040
     FM211000 35007KT P6SM VCSH OVC060=

USA.gov is the U.S. government's official web portal to all federal, state and local government web resources and services.